Time;durP1;ratioP1;P1;durP2;ratioP2;P2;SDS_P1;SDS_P2;PMS_P1;PMS_P2;Temp;Humidity;BMP_temperature;BMP_pressure;BME280_temperature;BME280_humidity;BME280_pressure;Samples;Min_cycle;Max_cycle;Signal;HPM_P1;HPM_P2
2023/05/28 00:02:18;;;;;;;5.55;2.92;;;;;;;20.74;46.28;102325.22;5007367;28;20048;-68
2023/05/28 00:04:43;;;;;;;5.03;2.78;;;;;;;20.73;46.44;102320.91;5004393;28;20037;-68
2023/05/28 00:07:10;;;;;;;5.82;3.22;;;;;;;20.75;46.43;102329.53;5006430;28;20093;-68
2023/05/28 00:09:41;;;;;;;6.07;2.58;;;;;;;20.71;46.53;102315.75;5006453;28;20582;-68
2023/05/28 00:12:07;;;;;;;6.70;2.92;;;;;;;20.73;46.27;102315.63;5004630;28;20064;-68
2023/05/28 00:14:33;;;;;;;5.70;3.47;;;;;;;20.71;46.28;102314.94;5006425;28;20045;-68
2023/05/28 00:16:59;;;;;;;4.82;3.85;;;;;;;20.70;46.49;102316.75;5004499;28;20701;-68
2023/05/28 00:19:24;;;;;;;7.10;3.15;;;;;;;20.70;46.42;102318.56;5005795;28;20046;-68
2023/05/28 00:21:50;;;;;;;5.88;3.10;;;;;;;20.69;46.10;102308.97;5008818;28;20042;-68
2023/05/28 00:24:15;;;;;;;5.20;3.03;;;;;;;20.71;46.30;102309.63;5011113;28;20044;-68
2023/05/28 00:26:41;;;;;;;5.85;3.00;;;;;;;20.66;46.12;102304.81;5010868;28;20052;-68
2023/05/28 00:29:06;;;;;;;7.05;3.20;;;;;;;20.52;46.22;102282.31;5012184;28;20038;-68
2023/05/28 00:31:32;;;;;;;6.43;3.08;;;;;;;20.71;46.24;102307.00;4994387;28;20038;-68
2023/05/28 00:34:00;;;;;;;4.85;3.08;;;;;;;20.68;46.27;102313.41;5010379;28;20042;-68
2023/05/28 00:36:26;;;;;;;7.18;3.40;;;;;;;20.67;46.26;102318.88;5012444;28;20127;-69
2023/05/28 00:38:52;;;;;;;8.25;3.00;;;;;;;20.66;46.28;102318.03;5013590;28;20050;-68
2023/05/28 00:41:22;;;;;;;7.05;2.97;;;;;;;20.63;46.38;102313.00;4995592;28;20027;-69
2023/05/28 00:43:51;;;;;;;4.93;3.17;;;;;;;20.65;46.25;102323.47;5010723;28;20229;-68
2023/05/28 00:46:22;;;;;;;6.35;3.15;;;;;;;20.65;46.49;102321.66;5012270;28;20025;-68
2023/05/28 00:48:49;;;;;;;4.40;2.60;;;;;;;20.62;46.34;102316.63;5007943;28;20041;-68
2023/05/28 00:51:15;;;;;;;4.85;3.08;;;;;;;20.64;46.38;102319.97;5009263;28;20041;-68
2023/05/28 00:53:41;;;;;;;5.00;3.00;;;;;;;20.57;46.34;102303.03;5009554;28;20054;-68
2023/05/28 00:56:12;;;;;;;6.97;2.90;;;;;;;20.65;46.33;102321.66;5013499;28;20029;-68
2023/05/28 00:58:41;;;;;;;4.40;3.00;;;;;;;20.60;46.31;102315.13;5009433;28;20057;-68
2023/05/28 01:01:09;;;;;;;5.78;2.80;;;;;;;20.60;46.41;102321.25;5009491;28;20057;-68
2023/05/28 01:03:39;;;;;;;5.60;3.30;;;;;;;20.60;46.36;102323.91;5009861;28;20046;-68
2023/05/28 01:06:13;;;;;;;6.68;3.45;;;;;;;20.64;46.28;102316.50;5010910;28;20240;-68
2023/05/28 01:08:40;;;;;;;6.15;3.13;;;;;;;20.61;46.54;102320.28;5008702;28;20041;-68
2023/05/28 01:11:13;;;;;;;5.75;2.97;;;;;;;20.55;46.48;102306.81;5011562;28;20189;-68
2023/05/28 01:13:40;;;;;;;6.38;3.33;;;;;;;20.63;46.22;102320.94;5006397;28;20441;-68
2023/05/28 01:16:06;;;;;;;5.85;2.95;;;;;;;20.62;46.17;102310.53;5009594;28;20111;-68
2023/05/28 01:18:32;;;;;;;6.13;2.90;;;;;;;20.59;46.29;102313.47;5010727;28;20535;-68
2023/05/28 01:21:02;;;;;;;7.70;3.38;;;;;;;20.57;46.38;102305.69;5008886;28;20079;-68
2023/05/28 01:23:28;;;;;;;5.15;2.80;;;;;;;20.59;46.43;102305.53;5007430;28;20393;-68
2023/05/28 01:25:59;;;;;;;3.92;2.85;;;;;;;20.57;46.34;102308.31;5005744;28;20566;-68
2023/05/28 01:28:25;;;;;;;4.50;2.72;;;;;;;20.51;46.50;102295.69;5024732;28;20038;-68
2023/05/28 01:30:52;;;;;;;4.55;3.00;;;;;;;20.56;46.42;102301.38;5009289;28;20415;-68
2023/05/28 01:33:20;;;;;;;6.82;3.10;;;;;;;20.57;46.36;102294.25;5007761;28;20064;-68
2023/05/28 01:35:46;;;;;;;4.93;3.05;;;;;;;20.55;46.30;102298.88;4992811;28;20048;-68
2023/05/28 01:38:14;;;;;;;4.85;2.90;;;;;;;20.54;46.45;102299.84;5009618;28;20046;-68
2023/05/28 01:40:45;;;;;;;5.55;2.92;;;;;;;20.55;46.47;102309.47;5005491;28;20041;-66
2023/05/28 01:43:10;;;;;;;4.80;3.10;;;;;;;20.52;46.37;102305.31;5005759;28;20478;-68
2023/05/28 01:45:38;;;;;;;4.88;2.83;;;;;;;20.45;46.39;102297.09;5007666;28;20049;-68
2023/05/28 01:48:05;;;;;;;5.70;3.25;;;;;;;20.51;46.34;102307.13;5006758;28;20054;-68
2023/05/28 01:50:32;;;;;;;6.13;3.20;;;;;;;20.52;46.43;102310.59;5008988;28;20844;-69
2023/05/28 01:52:59;;;;;;;6.60;3.03;;;;;;;20.50;46.48;102308.09;5008360;28;20093;-68
2023/05/28 01:55:25;;;;;;;4.57;2.80;;;;;;;20.50;46.52;102310.75;5006414;28;20026;-67
2023/05/28 01:57:51;;;;;;;5.57;2.80;;;;;;;20.49;46.38;102310.91;5009032;28;20057;-69
2023/05/28 02:00:17;;;;;;;6.45;3.28;;;;;;;20.47;46.41;102307.56;5007571;28;20037;-68
2023/05/28 02:02:43;;;;;;;5.13;3.00;;;;;;;20.47;46.75;102313.69;5005736;28;20041;-68
2023/05/28 02:05:11;;;;;;;5.50;2.80;;;;;;;20.47;46.37;102313.69;5008813;28;20897;-68
2023/05/28 02:07:36;;;;;;;6.35;2.92;;;;;;;20.47;46.50;102310.22;5008443;28;20037;-68
2023/05/28 02:10:02;;;;;;;6.30;3.00;;;;;;;20.45;46.56;102309.50;5005132;28;20038;-68
2023/05/28 02:12:28;;;;;;;7.95;3.58;;;;;;;20.47;46.52;102307.56;5003292;28;20053;-68
2023/05/28 02:14:54;;;;;;;6.20;2.72;;;;;;;20.37;46.49;102304.94;5009872;28;20045;-68
2023/05/28 02:17:20;;;;;;;5.95;3.17;;;;;;;20.45;46.47;102318.28;5008884;28;20030;-68
2023/05/28 02:19:46;;;;;;;4.40;2.60;;;;;;;20.41;46.46;102310.78;5005548;28;20045;-69
2023/05/28 02:22:12;;;;;;;4.70;2.72;;;;;;;20.29;46.59;102293.41;5006779;28;20026;-68
2023/05/28 02:24:38;;;;;;;5.05;2.88;;;;;;;20.41;46.82;102316.06;5004903;28;20081;-69
2023/05/28 02:27:06;;;;;;;8.02;2.90;;;;;;;20.42;46.53;102312.44;5007388;28;20053;-68
2023/05/28 02:29:31;;;;;;;7.03;3.28;;;;;;;20.32;46.59;102288.69;5010118;28;20037;-68
2023/05/28 02:31:57;;;;;;;6.95;3.42;;;;;;;20.40;46.48;102306.44;5008050;28;20657;-68
2023/05/28 02:34:22;;;;;;;6.18;3.65;;;;;;;20.40;46.53;102307.28;5007230;28;20092;-68
2023/05/28 02:36:48;;;;;;;5.10;2.83;;;;;;;20.41;46.59;102302.84;5008499;28;20042;-68
2023/05/28 02:39:14;;;;;;;5.72;3.50;;;;;;;20.40;46.60;102298.50;5004018;28;20042;-68
2023/05/28 02:41:41;;;;;;;7.47;3.05;;;;;;;20.35;46.54;102291.03;5005041;28;20508;-68
2023/05/28 02:44:06;;;;;;;4.25;2.60;;;;;;;20.36;46.74;102289.22;5001674;28;20053;-68
2023/05/28 02:46:32;;;;;;;6.38;3.30;;;;;;;20.41;46.47;102287.81;5008805;28;20037;-68
2023/05/28 02:48:57;;;;;;;5.18;2.85;;;;;;;20.39;46.74;102280.97;5006365;28;20054;-68
2023/05/28 02:51:26;;;;;;;4.25;2.90;;;;;;;20.38;46.48;102282.78;5006844;28;20046;-68
2023/05/28 02:53:57;;;;;;;4.72;3.25;;;;;;;20.39;46.52;102278.31;5020017;28;20034;-68
2023/05/28 02:56:23;;;;;;;5.25;2.72;;;;;;;20.19;46.65;102253.78;5006473;28;20045;-68
2023/05/28 02:58:49;;;;;;;4.55;2.90;;;;;;;20.38;46.46;102284.59;5022238;28;20136;-68
2023/05/28 03:01:14;;;;;;;6.40;3.25;;;;;;;20.37;46.67;102285.56;5005930;28;20042;-70
2023/05/28 03:03:40;;;;;;;4.70;2.97;;;;;;;20.34;46.64;102280.59;5006648;28;20050;-68
2023/05/28 03:06:07;;;;;;;5.35;2.97;;;;;;;20.28;46.62;102282.00;5005788;28;20041;-68
2023/05/28 03:08:39;;;;;;;5.80;2.90;;;;;;;20.29;46.75;102291.63;4992946;28;20045;-68
2023/05/28 03:11:05;;;;;;;3.47;2.58;;;;;;;20.21;46.71;102294.16;5006095;28;20034;-69
2023/05/28 03:13:31;;;;;;;4.55;2.92;;;;;;;20.30;46.58;102313.63;5020504;28;20377;-68
2023/05/28 03:15:58;;;;;;;5.80;3.35;;;;;;;20.32;46.76;102314.31;5006160;28;20041;-68
2023/05/28 03:18:24;;;;;;;4.57;2.83;;;;;;;20.31;46.50;102310.81;5005078;28;20042;-68
2023/05/28 03:20:50;;;;;;;7.72;3.40;;;;;;;20.30;46.77;102309.16;5005819;28;20052;-68
2023/05/28 03:23:16;;;;;;;5.82;2.92;;;;;;;20.25;46.63;102300.81;5006343;28;20038;-69
2023/05/28 03:25:57;;;;;;;6.63;3.70;;;;;;;20.27;46.66;102304.13;4994050;28;20572;-68
2023/05/28 03:28:23;;;;;;;4.57;2.80;;;;;;;20.16;46.61;102293.75;5006113;28;20056;-68
2023/05/28 03:31:08;;;;;;;6.18;3.30;;;;;;;20.25;46.96;102310.56;4993094;28;20037;-67
2023/05/28 03:33:33;;;;;;;6.32;3.30;;;;;;;20.28;46.89;102300.50;5005728;28;20871;-67
2023/05/28 03:35:59;;;;;;;4.53;2.97;;;;;;;20.28;46.62;102297.88;5005960;28;20037;-67
2023/05/28 03:38:25;;;;;;;5.65;3.60;;;;;;;20.29;46.68;102296.06;5022200;28;20100;-67
2023/05/28 03:40:50;;;;;;;4.20;2.55;;;;;;;20.25;46.78;102306.09;5005957;28;21045;-67
2023/05/28 03:43:16;;;;;;;6.07;2.95;;;;;;;20.25;46.83;102299.97;5006875;28;20045;-67
2023/05/28 03:45:41;;;;;;;5.00;2.78;;;;;;;20.19;46.68;102289.00;5004097;28;20041;-67
2023/05/28 03:48:07;;;;;;;5.90;3.28;;;;;;;20.27;46.71;102298.84;5007891;28;20030;-67
2023/05/28 03:50:33;;;;;;;5.97;3.08;;;;;;;20.20;46.61;102285.38;5005356;28;20042;-68
2023/05/28 03:52:58;;;;;;;5.53;3.58;;;;;;;20.19;47.07;102277.59;5007772;28;20057;-67
2023/05/28 03:55:25;;;;;;;5.38;3.10;;;;;;;20.26;46.79;102288.41;5005114;28;20042;-67
2023/05/28 03:57:50;;;;;;;5.57;3.10;;;;;;;20.25;46.74;102295.50;5003784;28;20052;-67
2023/05/28 04:00:16;;;;;;;5.65;3.13;;;;;;;20.23;46.74;102294.84;5004210;28;20077;-67
2023/05/28 04:02:44;;;;;;;6.50;3.10;;;;;;;20.27;46.64;102292.72;5005246;28;20069;-67
2023/05/28 04:05:10;;;;;;;6.43;3.35;;;;;;;20.22;46.93;102301.94;4989444;28;20034;-68
2023/05/28 04:07:36;;;;;;;4.75;2.67;;;;;;;20.22;46.80;102296.66;5005928;28;20049;-67
2023/05/28 04:10:02;;;;;;;5.97;2.85;;;;;;;20.22;46.74;102298.47;5004676;28;20053;-67
2023/05/28 04:12:27;;;;;;;5.60;3.47;;;;;;;20.20;46.98;102301.25;5006714;28;20119;-69
2023/05/28 04:14:53;;;;;;;4.75;2.97;;;;;;;20.22;46.80;102291.34;4987889;28;20435;-67
2023/05/28 04:17:20;;;;;;;7.25;2.88;;;;;;;20.21;46.83;102299.44;5022472;28;20046;-66
2023/05/28 04:19:47;;;;;;;4.85;2.83;;;;;;;20.22;46.80;102301.94;5004475;28;20118;-66
2023/05/28 04:22:12;;;;;;;5.95;3.10;;;;;;;20.23;46.78;102305.41;5006394;28;20385;-66
2023/05/28 04:24:38;;;;;;;4.88;2.78;;;;;;;20.25;46.63;102308.75;5006454;28;20045;-67
2023/05/28 04:27:04;;;;;;;7.82;2.80;;;;;;;20.22;46.66;102301.09;5006270;28;20033;-67
2023/05/28 04:29:31;;;;;;;4.70;2.80;;;;;;;20.21;46.69;102302.09;5006551;28;20034;-67
2023/05/28 04:32:00;;;;;;;4.65;2.88;;;;;;;20.20;46.65;102303.06;5009730;28;20060;-67
2023/05/28 04:34:26;;;;;;;5.07;2.83;;;;;;;20.21;46.76;102308.22;5009894;28;21233;-66
2023/05/28 04:36:52;;;;;;;4.50;2.75;;;;;;;20.19;46.88;102309.34;5008669;28;20135;-67
2023/05/28 04:39:18;;;;;;;3.78;2.67;;;;;;;20.23;46.71;102310.69;5004737;28;20053;-67
2023/05/28 04:41:45;;;;;;;5.75;2.92;;;;;;;20.19;46.77;102307.53;5004981;28;20050;-67
2023/05/28 04:44:15;;;;;;;4.32;2.83;;;;;;;20.15;46.76;102302.69;5005918;28;20515;-67
2023/05/28 04:46:45;;;;;;;5.50;2.72;;;;;;;20.19;46.73;102294.31;5006462;28;20042;-67
2023/05/28 04:49:12;;;;;;;4.97;3.10;;;;;;;20.18;46.56;102297.09;5007802;28;20116;-67
2023/05/28 04:51:41;;;;;;;6.93;3.00;;;;;;;20.16;46.82;102294.59;5007694;28;20046;-67
2023/05/28 04:54:07;;;;;;;4.70;2.63;;;;;;;20.18;46.70;102289.16;5004629;28;20050;-68
2023/05/28 04:56:32;;;;;;;4.68;2.90;;;;;;;20.17;46.82;102298.06;5008406;28;20046;-67
2023/05/28 04:58:58;;;;;;;6.65;3.42;;;;;;;20.21;46.75;102300.28;4991756;28;20057;-66
2023/05/28 05:01:24;;;;;;;5.30;2.90;;;;;;;20.18;46.71;102297.09;5002633;28;20030;-66
2023/05/28 05:03:51;;;;;;;5.25;2.45;;;;;;;20.17;46.85;102298.91;5005464;28;20049;-67
2023/05/28 05:06:17;;;;;;;5.07;2.78;;;;;;;20.19;46.63;102296.94;5006486;28;20041;-67
2023/05/28 05:08:42;;;;;;;5.78;3.45;;;;;;;20.19;46.74;102307.53;4991264;28;20089;-67
2023/05/28 05:11:08;;;;;;;5.85;2.83;;;;;;;20.18;46.76;102297.09;4990915;28;20118;-67
2023/05/28 05:13:34;;;;;;;3.70;2.53;;;;;;;20.23;46.67;102302.78;5023987;28;20045;-70
2023/05/28 05:15:59;;;;;;;4.72;2.83;;;;;;;20.22;46.67;102299.28;5008028;28;20049;-67
2023/05/28 05:18:25;;;;;;;4.50;2.88;;;;;;;20.26;46.37;102296.34;5009797;28;20026;-66
2023/05/28 05:20:51;;;;;;;4.35;3.03;;;;;;;20.23;46.65;102300.13;5008545;28;20041;-66
2023/05/28 05:23:16;;;;;;;6.13;2.70;;;;;;;20.23;46.67;102306.25;5007381;28;20048;-66
2023/05/28 05:25:47;;;;;;;4.60;2.97;;;;;;;20.25;46.68;102302.63;5006424;28;20046;-67
2023/05/28 05:28:12;;;;;;;4.72;2.65;;;;;;;20.21;46.58;102310.84;5009163;28;20530;-67
2023/05/28 05:30:38;;;;;;;6.82;2.60;;;;;;;20.20;46.81;102317.13;5008596;28;20046;-67
2023/05/28 05:33:03;;;;;;;4.68;2.92;;;;;;;20.23;46.72;102316.81;5010100;28;20045;-67
2023/05/28 05:35:34;;;;;;;5.72;2.55;;;;;;;20.25;46.72;102318.50;5005562;28;20037;-66
2023/05/28 05:38:32;;;;;;;5.72;3.00;;;;;;;20.24;46.74;102322.94;5010529;28;20046;-66
2023/05/28 05:41:17;;;;;;;5.88;2.70;;;;;;;20.26;46.77;102322.81;5010601;28;20091;-67
2023/05/28 05:43:47;;;;;;;7.43;2.83;;;;;;;20.23;46.41;102319.47;5009340;28;20038;-67
2023/05/28 05:46:14;;;;;;;6.97;2.78;;;;;;;20.28;46.38;102326.13;5009710;28;20042;-66
2023/05/28 05:48:40;;;;;;;4.63;2.88;;;;;;;20.30;46.41;102329.50;5009391;28;20038;-67
2023/05/28 05:51:06;;;;;;;4.63;2.70;;;;;;;20.31;46.53;102329.34;5025128;28;20033;-67
2023/05/28 05:53:32;;;;;;;5.13;2.90;;;;;;;20.31;46.45;102329.34;5009475;28;20144;-67
2023/05/28 05:55:57;;;;;;;5.28;2.92;;;;;;;20.34;46.20;102334.34;5006246;28;20034;-67
2023/05/28 05:58:23;;;;;;;4.72;2.55;;;;;;;20.33;46.37;102330.03;5008721;28;20030;-69
2023/05/28 06:00:48;;;;;;;5.13;2.60;;;;;;;20.34;46.41;102331.69;5006696;28;20274;-67
2023/05/28 06:03:14;;;;;;;4.05;2.50;;;;;;;20.37;46.42;102334.03;5023133;28;20038;-67
2023/05/28 06:05:58;;;;;;;4.45;2.72;;;;;;;20.34;46.05;102317.63;5006187;28;20056;-67
2023/05/28 06:08:41;;;;;;;4.97;2.75;;;;;;;20.37;46.29;102323.44;5008783;28;20141;-67
2023/05/28 06:11:12;;;;;;;5.18;2.72;;;;;;;20.35;46.25;102316.66;5006005;28;20046;-66
2023/05/28 06:13:38;;;;;;;4.03;2.50;;;;;;;20.38;46.08;102322.47;5009469;28;20042;-67
2023/05/28 06:16:04;;;;;;;6.18;3.10;;;;;;;20.42;46.00;102328.31;5004716;28;20448;-67
2023/05/28 06:18:30;;;;;;;5.43;2.78;;;;;;;20.40;46.14;102336.38;5003075;28;20046;-68
2023/05/28 06:20:57;;;;;;;6.43;3.58;;;;;;;20.41;46.05;102327.50;5004519;28;20048;-67
2023/05/28 06:23:22;;;;;;;4.90;2.75;;;;;;;20.43;46.08;102325.53;5007288;28;20037;-67
2023/05/28 06:25:49;;;;;;;4.20;2.95;;;;;;;20.43;46.10;102340.56;5005805;28;20049;-67
2023/05/28 06:28:15;;;;;;;4.88;2.83;;;;;;;20.42;46.15;102336.25;5007222;28;20034;-67
2023/05/28 06:30:40;;;;;;;5.32;2.78;;;;;;;20.43;46.05;102338.75;5007635;28;20046;-67
2023/05/28 06:33:06;;;;;;;4.43;3.00;;;;;;;20.45;46.27;102339.44;5002805;28;20038;-67
2023/05/28 06:35:32;;;;;;;6.78;3.08;;;;;;;20.48;45.98;102335.69;5023393;28;20049;-67
2023/05/28 06:37:57;;;;;;;6.07;2.85;;;;;;;20.49;45.92;102337.34;5006734;28;20053;-67
2023/05/28 06:40:23;;;;;;;5.93;2.92;;;;;;;20.52;46.08;102339.72;5007425;28;20045;-67
2023/05/28 06:42:49;;;;;;;4.93;2.53;;;;;;;20.53;45.90;102336.06;5007345;28;20037;-66
2023/05/28 06:45:20;;;;;;;5.88;3.05;;;;;;;20.56;45.78;102343.72;5007491;28;20038;-66
2023/05/28 06:47:47;;;;;;;5.38;2.90;;;;;;;20.60;45.78;102349.53;5008912;28;20372;-67
2023/05/28 06:50:15;;;;;;;5.40;2.65;;;;;;;20.63;45.80;102354.53;5008284;28;20063;-68
2023/05/28 06:52:42;;;;;;;6.05;3.17;;;;;;;20.65;45.87;102350.78;5007199;28;20050;-70
2023/05/28 06:55:08;;;;;;;3.80;2.58;;;;;;;20.71;45.62;102358.13;5005083;28;20042;-67
2023/05/28 06:57:36;;;;;;;6.90;2.47;;;;;;;20.62;45.36;102329.03;5007679;28;20042;-67
2023/05/28 07:00:13;;;;;;;5.72;2.97;;;;;;;20.64;45.26;102332.38;5007676;28;20432;-67
2023/05/28 07:03:02;;;;;;;4.82;2.53;;;;;;;20.83;45.21;102358.75;4998293;28;20049;-67
2023/05/28 07:05:53;;;;;;;3.78;2.58;;;;;;;20.89;45.14;102362.59;5004110;28;20046;-67
2023/05/28 07:08:18;;;;;;;6.32;2.97;;;;;;;20.93;45.19;102364.78;5007269;28;20047;-67
2023/05/28 07:10:44;;;;;;;8.07;3.33;;;;;;;20.95;45.50;102357.53;5004133;28;20050;-67
2023/05/28 07:13:11;;;;;;;6.93;3.63;;;;;;;20.91;45.66;102369.41;4992747;28;20403;-66
2023/05/28 07:15:37;;;;;;;10.55;4.47;;;;;;;20.92;45.05;102367.59;5007260;28;20033;-67
2023/05/28 07:18:03;;;;;;;10.05;3.75;;;;;;;20.94;45.56;102368.28;5021266;28;20052;-67
2023/05/28 07:20:29;;;;;;;7.80;3.85;;;;;;;20.97;45.74;102373.28;5007570;28;20049;-67
2023/05/28 07:23:05;;;;;;;15.23;4.10;;;;;;;20.92;45.24;102363.13;5007250;28;20030;-67
2023/05/28 07:25:31;;;;;;;11.75;4.28;;;;;;;20.96;44.96;102371.59;5007318;28;20053;-67
2023/05/28 07:27:56;;;;;;;7.80;3.83;;;;;;;20.95;44.72;102370.78;5012274;28;20046;-67
2023/05/28 07:30:28;;;;;;;10.93;4.30;;;;;;;21.02;44.10;102371.84;5009514;28;20038;-68
2023/05/28 07:32:58;;;;;;;7.28;3.88;;;;;;;21.03;43.83;102376.16;5008309;28;20045;-67
2023/05/28 07:35:24;;;;;;;10.75;4.10;;;;;;;21.02;43.86;102374.50;5009262;28;20049;-67
2023/05/28 07:37:52;;;;;;;6.82;4.03;;;;;;;21.03;43.96;102376.16;5010082;28;20514;-67
2023/05/28 07:40:18;;;;;;;9.52;3.75;;;;;;;21.06;43.59;102369.72;5009567;28;20419;-67
2023/05/28 07:42:45;;;;;;;6.32;3.72;;;;;;;21.11;43.47;102372.75;4993691;28;20042;-67
2023/05/28 07:45:11;;;;;;;11.85;5.10;;;;;;;21.10;43.73;102371.94;5013212;28;20042;-67
2023/05/28 07:47:36;;;;;;;10.90;4.55;;;;;;;21.11;43.47;102376.25;5011776;28;20034;-67
2023/05/28 07:50:11;;;;;;;8.05;3.60;;;;;;;21.11;43.55;102367.47;5009309;28;20120;-67
2023/05/28 07:53:02;;;;;;;7.82;3.83;;;;;;;21.20;43.71;102369.22;5005901;28;20046;-67
2023/05/28 07:55:27;;;;;;;8.27;3.90;;;;;;;21.21;43.56;102376.19;4991138;28;20377;-67
2023/05/28 07:57:54;;;;;;;8.30;3.80;;;;;;;21.24;43.44;102378.56;5009539;28;20050;-67
2023/05/28 08:00:20;;;;;;;7.03;3.83;;;;;;;21.26;43.01;102376.59;5008425;28;20037;-67
2023/05/28 08:02:52;;;;;;;8.60;3.72;;;;;;;21.26;42.83;102378.41;5004549;28;20050;-67
2023/05/28 08:05:20;;;;;;;7.93;3.90;;;;;;;21.25;42.84;102371.44;5008112;28;20037;-67
2023/05/28 08:07:46;;;;;;;7.68;3.95;;;;;;;21.26;43.00;102373.94;5007925;28;20498;-67
2023/05/28 08:10:13;;;;;;;9.30;4.00;;;;;;;21.15;42.54;102352.09;5022739;28;20049;-66
2023/05/28 08:12:39;;;;;;;9.27;3.53;;;;;;;21.27;42.45;102378.25;5010202;28;20073;-67
2023/05/28 08:15:05;;;;;;;10.40;4.70;;;;;;;21.29;42.36;102375.44;5005855;28;20038;-67
2023/05/28 08:17:33;;;;;;;6.55;3.70;;;;;;;21.27;42.06;102383.53;5001234;28;20076;-67
2023/05/28 08:20:06;;;;;;;7.60;3.42;;;;;;;21.29;42.26;102383.38;5005393;28;20069;-67
2023/05/28 08:22:53;;;;;;;8.67;4.23;;;;;;;21.26;41.93;102370.44;5006324;28;20050;-67
2023/05/28 08:25:19;;;;;;;6.30;3.70;;;;;;;21.31;41.65;102378.75;5007675;28;20729;-67
2023/05/28 08:27:47;;;;;;;7.60;3.80;;;;;;;21.32;41.41;102378.59;5026568;28;20057;-67
2023/05/28 08:30:13;;;;;;;6.53;3.85;;;;;;;21.31;41.57;102378.75;5010367;28;21037;-68
2023/05/28 08:32:49;;;;;;;7.25;3.72;;;;;;;21.32;41.28;102372.47;5008187;28;20057;-66
2023/05/28 08:35:15;;;;;;;9.52;4.03;;;;;;;21.31;41.38;102369.00;5010297;28;20068;-69
2023/05/28 08:37:41;;;;;;;6.30;3.53;;;;;;;21.33;41.24;102374.97;5009729;28;20045;-69
2023/05/28 08:40:14;;;;;;;9.23;4.22;;;;;;;21.33;41.10;102376.78;5006620;28;20053;-69
2023/05/28 08:42:40;;;;;;;7.63;3.70;;;;;;;21.27;41.13;102365.00;5014092;28;20045;-69
2023/05/28 08:45:06;;;;;;;8.02;3.80;;;;;;;21.34;41.50;102373.16;5011181;28;20037;-69
2023/05/28 08:47:37;;;;;;;6.93;3.63;;;;;;;21.32;41.37;102369.81;5012637;28;20034;-69
2023/05/28 08:50:15;;;;;;;6.03;3.50;;;;;;;21.32;41.59;102373.31;5014759;28;20115;-69
2023/05/28 08:52:59;;;;;;;6.65;3.55;;;;;;;21.34;41.30;102371.34;5014860;28;20054;-69
2023/05/28 08:55:25;;;;;;;9.30;3.85;;;;;;;21.33;40.88;102364.38;5009514;28;20630;-69
2023/05/28 08:57:58;;;;;;;6.97;3.30;;;;;;;21.36;41.31;102374.69;5012291;28;20061;-69
2023/05/28 09:00:24;;;;;;;5.93;3.50;;;;;;;21.35;40.89;102374.81;4996381;28;20046;-69
2023/05/28 09:03:09;;;;;;;8.43;3.88;;;;;;;21.35;40.53;102364.22;5011765;28;20052;-69
2023/05/28 09:05:37;;;;;;;6.25;4.00;;;;;;;21.33;40.97;102369.69;5007053;28;20034;-69
2023/05/28 09:08:07;;;;;;;5.88;3.90;;;;;;;21.29;40.70;102360.38;5012792;28;20046;-69
2023/05/28 09:10:33;;;;;;;8.13;3.85;;;;;;;21.32;40.60;102370.66;5014176;28;20077;-68
2023/05/28 09:13:00;;;;;;;7.15;3.90;;;;;;;21.29;40.64;102362.19;5011680;28;20240;-69
2023/05/28 09:15:26;;;;;;;6.78;3.97;;;;;;;21.28;40.40;102358.72;4996367;28;20585;-69
2023/05/28 09:17:52;;;;;;;6.70;4.05;;;;;;;21.33;40.45;102368.84;5009812;28;20062;-69
2023/05/28 09:20:23;;;;;;;11.70;4.55;;;;;;;21.31;40.50;102365.53;5011526;28;20038;-69
2023/05/28 09:23:07;;;;;;;7.32;4.28;;;;;;;21.34;40.39;102363.38;5012864;28;20033;-69
2023/05/28 09:26:00;;;;;;;6.80;3.97;;;;;;;21.34;40.45;102368.69;5014272;28;20882;-69
2023/05/28 09:28:30;;;;;;;7.85;4.38;;;;;;;21.32;40.51;102372.47;5008748;28;20130;-68
2023/05/28 09:31:05;;;;;;;7.57;3.95;;;;;;;21.34;40.13;102367.84;5011745;28;20475;-69
2023/05/28 09:33:33;;;;;;;8.32;4.68;;;;;;;21.33;40.17;102361.72;5015036;28;20045;-69
2023/05/28 09:36:00;;;;;;;7.57;4.47;;;;;;;21.31;40.17;102366.34;5012357;28;20037;-68
2023/05/28 09:38:26;;;;;;;8.48;4.35;;;;;;;21.32;40.64;102372.47;5011453;28;20034;-68
2023/05/28 09:40:56;;;;;;;8.70;4.50;;;;;;;21.27;40.40;102364.16;5010179;28;20076;-68
2023/05/28 09:43:31;;;;;;;8.35;4.80;;;;;;;21.31;40.47;102369.00;5013039;28;20046;-68
2023/05/28 09:46:09;;;;;;;6.93;4.10;;;;;;;21.24;40.00;102349.41;5011858;28;20026;-69
2023/05/28 09:48:35;;;;;;;6.63;4.07;;;;;;;21.29;40.19;102359.53;5009976;28;20046;-69
2023/05/28 09:51:04;;;;;;;8.82;4.82;;;;;;;21.30;39.91;102364.69;5012310;28;20041;-69
2023/05/28 09:53:34;;;;;;;13.43;4.82;;;;;;;21.30;39.62;102362.03;5006230;28;20053;-68
2023/05/28 09:56:02;;;;;;;9.77;5.70;;;;;;;21.30;39.66;102366.50;5010953;28;20052;-68
2023/05/28 09:58:34;;;;;;;10.13;5.32;;;;;;;21.28;39.72;102355.22;5011769;28;20034;-68
2023/05/28 10:01:03;;;;;;;9.60;4.65;;;;;;;21.26;39.79;102360.69;5011075;28;20073;-68
2023/05/28 10:03:42;;;;;;;9.90;4.93;;;;;;;21.20;39.96;102350.66;5011600;28;20040;-68
2023/05/28 10:06:14;;;;;;;10.25;5.03;;;;;;;21.16;39.59;102336.03;5011458;28;20037;-68
2023/05/28 10:08:42;;;;;;;8.85;4.93;;;;;;;21.27;40.21;102354.41;5015623;28;20034;-68
2023/05/28 10:11:15;;;;;;;9.38;4.95;;;;;;;21.26;39.76;102347.44;5008841;28;20030;-68
2023/05/28 10:13:41;;;;;;;12.57;5.80;;;;;;;21.24;40.11;102348.53;5014849;28;20037;-69
2023/05/28 10:16:07;;;;;;;11.98;5.60;;;;;;;21.25;40.05;102352.88;5012855;28;20084;-68
2023/05/28 10:18:34;;;;;;;10.60;5.53;;;;;;;21.18;39.83;102346.47;5011698;28;20065;-68
2023/05/28 10:21:01;;;;;;;10.88;6.50;;;;;;;21.24;39.76;102351.19;5011522;28;21417;-69
2023/05/28 10:23:27;;;;;;;9.50;5.00;;;;;;;21.23;39.60;102345.06;5010975;28;20904;-68
2023/05/28 10:25:54;;;;;;;11.90;6.22;;;;;;;21.22;39.11;102348.69;5009609;28;20481;-68
2023/05/28 10:28:21;;;;;;;11.20;5.78;;;;;;;21.22;38.87;102347.88;5012061;28;20042;-68
2023/05/28 10:31:04;;;;;;;8.52;5.10;;;;;;;21.17;39.46;102342.16;5013981;28;20038;-68
2023/05/28 10:33:30;;;;;;;9.38;5.25;;;;;;;21.20;39.32;102352.50;5027204;28;20113;-68
2023/05/28 10:36:00;;;;;;;11.40;5.32;;;;;;;21.19;39.27;102343.72;5012783;28;20103;-68
2023/05/28 10:38:29;;;;;;;11.38;5.65;;;;;;;21.18;38.95;102349.13;5009761;28;20050;-68
2023/05/28 10:41:02;;;;;;;11.65;5.90;;;;;;;21.17;38.95;102350.13;5012793;28;20048;-68
2023/05/28 10:43:46;;;;;;;11.35;6.45;;;;;;;21.16;38.89;102348.44;5012661;28;20065;-68
2023/05/28 10:46:35;;;;;;;11.80;6.30;;;;;;;21.19;38.83;102350.81;5009209;28;20027;-68
2023/05/28 10:49:11;;;;;;;11.10;5.67;;;;;;;21.19;38.94;102356.13;5009600;28;20042;-69
2023/05/28 10:51:43;;;;;;;11.30;6.18;;;;;;;21.20;39.02;102360.44;5010879;28;20042;-67
2023/05/28 10:54:16;;;;;;;8.77;5.95;;;;;;;21.19;39.25;102348.19;5010782;28;20037;-68
2023/05/28 10:57:07;;;;;;;10.95;5.53;;;;;;;21.19;39.20;102356.13;5009545;28;20116;-68
2023/05/28 10:59:42;;;;;;;9.13;5.88;;;;;;;21.15;39.51;102349.44;5011138;28;20064;-68
2023/05/28 11:02:08;;;;;;;10.48;5.65;;;;;;;21.21;39.33;102354.16;5011025;28;20044;-69
2023/05/28 11:04:34;;;;;;;11.48;6.63;;;;;;;21.20;39.27;102358.63;5012331;28;20464;-68
2023/05/28 11:07:00;;;;;;;13.20;6.53;;;;;;;21.21;39.34;102357.63;5008714;28;20073;-68
2023/05/28 11:09:26;;;;;;;9.73;5.75;;;;;;;21.20;38.98;102357.78;5009030;28;20076;-68
2023/05/28 11:11:53;;;;;;;10.32;5.93;;;;;;;21.17;39.39;102355.41;5010735;28;20092;-68
2023/05/28 11:14:18;;;;;;;10.38;6.32;;;;;;;21.20;39.35;102349.84;5010226;28;20933;-68
2023/05/28 11:16:44;;;;;;;11.55;6.10;;;;;;;21.20;39.56;102360.44;5010844;28;20048;-68
2023/05/28 11:19:10;;;;;;;10.38;5.95;;;;;;;21.20;39.52;102355.13;5008317;28;20041;-68
2023/05/28 11:21:53;;;;;;;8.60;5.40;;;;;;;21.20;39.37;102350.66;5011660;28;20037;-68
2023/05/28 11:24:18;;;;;;;8.98;5.65;;;;;;;21.20;39.02;102350.66;5008834;28;20531;-69
2023/05/28 11:26:44;;;;;;;10.02;5.80;;;;;;;21.21;39.29;102354.16;5007738;28;20050;-68
2023/05/28 11:29:13;;;;;;;9.40;5.15;;;;;;;21.20;39.17;102353.31;5012577;28;20041;-68
2023/05/28 11:31:42;;;;;;;9.75;5.38;;;;;;;21.21;39.47;102354.97;5007505;28;20046;-68